createdAt,value
2023-03-22T00:02:08.577Z,38.50
2023-03-22T00:05:16.892Z,37.90
2023-03-22T00:08:26.045Z,38.00
2023-03-22T00:11:34.195Z,38.00
2023-03-22T00:14:42.822Z,38.60
2023-03-22T00:17:51.848Z,38.00
2023-03-22T00:21:00.432Z,38.00
2023-03-22T00:24:09.933Z,38.00
2023-03-22T00:27:17.847Z,38.00
2023-03-22T00:30:25.892Z,38.00
2023-03-22T00:33:34.333Z,38.10
2023-03-22T00:36:42.816Z,38.10
2023-03-22T00:39:52.116Z,38.10
2023-03-22T00:43:00.112Z,38.10
2023-03-22T00:46:09.835Z,38.10
2023-03-22T00:49:18.842Z,38.10
2023-03-22T00:52:27.322Z,38.20
2023-03-22T00:55:36.583Z,38.20
2023-03-22T00:58:45.140Z,38.20
2023-03-22T01:01:53.550Z,38.20
2023-03-22T01:05:02.475Z,38.20
2023-03-22T01:08:12.849Z,38.20
2023-03-22T01:11:22.226Z,38.20
2023-03-22T01:14:31.670Z,38.20
2023-03-22T01:17:39.843Z,38.20
2023-03-22T01:20:48.089Z,38.20
2023-03-22T01:23:56.016Z,38.30
2023-03-22T01:27:05.819Z,38.20
2023-03-22T01:30:13.939Z,38.20
2023-03-22T01:33:22.162Z,38.30
2023-03-22T01:36:30.676Z,38.30
2023-03-22T01:39:38.747Z,38.30
2023-03-22T01:42:51.251Z,38.30
2023-03-22T01:46:02.143Z,38.30
2023-03-22T01:49:13.793Z,38.30
2023-03-22T01:52:22.630Z,38.30
2023-03-22T01:55:37.076Z,38.30
2023-03-22T01:58:56.004Z,38.30
2023-03-22T02:02:18.949Z,38.40
2023-03-22T02:05:32.425Z,38.40
2023-03-22T02:08:42.632Z,38.40
2023-03-22T02:11:58.809Z,38.40
2023-03-22T02:15:15.784Z,38.40
2023-03-22T02:18:51.010Z,38.40
2023-03-22T02:22:14.472Z,38.40
2023-03-22T02:25:36.463Z,38.50
2023-03-22T02:28:46.567Z,38.40
2023-03-22T02:32:27.853Z,38.40
2023-03-22T02:35:43.134Z,38.40
2023-03-22T02:39:09.743Z,38.40
2023-03-22T02:42:32.999Z,38.40
2023-03-22T02:45:41.625Z,38.40
2023-03-22T02:48:54.111Z,38.40
2023-03-22T02:52:02.565Z,38.40
2023-03-22T02:55:13.294Z,38.40
2023-03-22T02:58:22.363Z,38.40
2023-03-22T03:01:32.481Z,38.40
2023-03-22T03:04:43.032Z,38.50
2023-03-22T03:07:53.370Z,38.40
2023-03-22T03:11:04.491Z,38.40
2023-03-22T03:14:21.432Z,38.40
2023-03-22T03:17:37.334Z,38.50
2023-03-22T03:20:52.223Z,39.10
2023-03-22T03:24:05.540Z,38.50
2023-03-22T03:27:17.617Z,38.50
2023-03-22T03:30:27.194Z,38.50
2023-03-22T03:33:35.915Z,38.50
2023-03-22T03:36:47.301Z,38.50
2023-03-22T03:39:57.695Z,38.50
2023-03-22T03:43:07.217Z,38.40
2023-03-22T03:46:15.433Z,38.50
2023-03-22T03:49:23.654Z,38.50
2023-03-22T03:52:31.628Z,38.50
2023-03-22T03:55:39.806Z,38.50
2023-03-22T03:58:49.324Z,38.50
2023-03-22T04:01:57.711Z,38.50
2023-03-22T04:05:10.240Z,38.60
2023-03-22T04:08:18.246Z,38.50
2023-03-22T04:11:26.319Z,38.60
2023-03-22T04:14:41.726Z,38.60
2023-03-22T04:17:59.701Z,38.60
2023-03-22T04:21:12.095Z,38.70
2023-03-22T04:24:37.847Z,38.60
2023-03-22T04:27:47.222Z,38.50
2023-03-22T04:30:57.909Z,38.60
2023-03-22T04:34:28.899Z,38.50
2023-03-22T04:37:45.625Z,38.50
2023-03-22T04:40:57.850Z,38.60
2023-03-22T04:44:26.373Z,38.60
2023-03-22T04:47:36.138Z,38.60
2023-03-22T04:50:47.495Z,38.60
2023-03-22T04:53:56.051Z,38.60
2023-03-22T04:57:04.560Z,38.60
2023-03-22T05:00:21.685Z,38.60
2023-03-22T05:03:31.742Z,38.60
2023-03-22T05:06:40.261Z,38.70
2023-03-22T05:09:58.115Z,38.70
2023-03-22T05:13:06.013Z,38.60
2023-03-22T05:16:20.683Z,38.60
2023-03-22T05:19:33.386Z,38.60
2023-03-22T05:22:42.815Z,38.70
2023-03-22T05:25:52.738Z,38.70
2023-03-22T05:29:00.817Z,38.70
2023-03-22T05:32:29.103Z,38.70
2023-03-22T05:35:39.917Z,38.70
2023-03-22T05:38:49.765Z,38.70
2023-03-22T05:41:58.806Z,38.70
2023-03-22T05:45:07.934Z,38.70
2023-03-22T05:48:16.858Z,38.70
2023-03-22T05:51:27.298Z,38.70
2023-03-22T05:54:35.881Z,38.70
2023-03-22T05:57:44.227Z,38.70
2023-03-22T06:00:52.319Z,38.70
2023-03-22T06:04:05.854Z,38.70
2023-03-22T06:07:30.510Z,38.70
2023-03-22T06:10:44.567Z,38.80
2023-03-22T06:13:52.471Z,38.70
2023-03-22T06:17:01.988Z,38.80
2023-03-22T06:20:11.444Z,38.80
2023-03-22T06:23:23.409Z,38.80
2023-03-22T06:26:31.422Z,38.80
2023-03-22T06:29:39.876Z,38.80
2023-03-22T06:32:49.396Z,38.80
2023-03-22T06:35:58.878Z,38.90
2023-03-22T06:39:14.852Z,38.90
2023-03-22T06:42:26.041Z,38.90
2023-03-22T06:45:43.745Z,38.90
2023-03-22T06:48:51.885Z,38.90
2023-03-22T06:51:59.872Z,38.90
2023-03-22T06:55:10.575Z,38.90
2023-03-22T06:58:18.781Z,38.90
2023-03-22T07:01:26.892Z,39.00
2023-03-22T07:04:35.386Z,39.00
2023-03-22T07:07:43.398Z,39.10
2023-03-22T07:10:52.908Z,39.50
2023-03-22T07:14:04.008Z,39.90
2023-03-22T07:17:32.107Z,40.20
2023-03-22T07:20:41.658Z,40.50
2023-03-22T07:23:49.905Z,40.50
2023-03-22T07:27:02.056Z,40.50
2023-03-22T07:30:11.304Z,40.60
2023-03-22T07:33:24.571Z,40.60
2023-03-22T07:36:33.145Z,40.70
2023-03-22T07:39:42.033Z,40.70
2023-03-22T07:42:53.740Z,40.80
2023-03-22T07:46:25.551Z,40.80
2023-03-22T07:49:58.117Z,40.80
2023-03-22T07:53:08.603Z,40.80
2023-03-22T07:56:16.662Z,40.80
2023-03-22T07:59:25.905Z,40.80
2023-03-22T08:02:34.793Z,40.80
2023-03-22T08:05:48.361Z,40.80
2023-03-22T08:08:57.126Z,40.80
2023-03-22T08:12:05.401Z,40.80
2023-03-22T08:15:15.153Z,40.80
2023-03-22T08:18:24.233Z,40.70
2023-03-22T08:21:33.689Z,41.30
2023-03-22T08:24:42.930Z,40.70
2023-03-22T08:27:57.566Z,40.70
2023-03-22T08:31:15.145Z,40.70
2023-03-22T08:34:24.509Z,40.70
2023-03-22T08:37:33.237Z,40.70
2023-03-22T08:40:43.466Z,40.60
2023-03-22T08:43:51.487Z,40.60
2023-03-22T08:47:02.205Z,40.60
2023-03-22T08:50:11.500Z,40.60
2023-03-22T08:53:32.017Z,40.70
2023-03-22T08:57:00.634Z,40.70
2023-03-22T09:00:48.121Z,40.60
2023-03-22T09:04:21.225Z,40.50
2023-03-22T09:07:29.317Z,40.50
2023-03-22T09:10:51.350Z,40.40
2023-03-22T09:14:01.653Z,40.40
2023-03-22T09:17:09.925Z,40.40
2023-03-22T09:20:19.754Z,40.40
2023-03-22T09:23:30.304Z,40.40
2023-03-22T09:26:38.224Z,40.40
2023-03-22T09:29:47.157Z,40.30
2023-03-22T09:32:57.858Z,40.40
2023-03-22T09:36:08.470Z,40.40
2023-03-22T09:39:16.654Z,40.40
2023-03-22T09:42:30.803Z,40.40
2023-03-22T09:45:43.657Z,40.50
2023-03-22T09:48:51.754Z,40.50
2023-03-22T09:52:01.262Z,40.60
2023-03-22T09:55:18.723Z,40.70
2023-03-22T09:58:29.661Z,40.70
2023-03-22T10:01:40.052Z,40.80
2023-03-22T10:04:52.060Z,40.80
2023-03-22T10:08:25.792Z,40.90
2023-03-22T10:11:39.982Z,41.00
2023-03-22T10:14:50.373Z,41.00
2023-03-22T10:17:58.433Z,41.10
2023-03-22T10:21:07.307Z,41.10
2023-03-22T10:24:18.534Z,41.10
2023-03-22T10:27:27.170Z,41.20
2023-03-22T10:30:36.981Z,41.20
2023-03-22T10:33:50.388Z,41.20
2023-03-22T10:37:00.866Z,41.30
2023-03-22T10:40:16.049Z,41.30
2023-03-22T10:43:26.210Z,41.30
2023-03-22T10:46:36.884Z,41.30
2023-03-22T10:49:46.551Z,41.30
2023-03-22T10:52:57.695Z,41.40
2023-03-22T10:56:10.504Z,41.40
2023-03-22T10:59:42.959Z,41.40
2023-03-22T11:02:53.569Z,41.40
2023-03-22T11:06:07.365Z,41.30
2023-03-22T11:09:17.853Z,41.30
2023-03-22T11:12:27.659Z,41.30
2023-03-22T11:15:37.322Z,41.40
2023-03-22T11:18:45.317Z,41.30
2023-03-22T11:21:53.431Z,41.30
2023-03-22T11:25:01.205Z,41.30
2023-03-22T11:28:16.256Z,41.30
2023-03-22T11:31:25.921Z,41.30
2023-03-22T11:34:33.866Z,41.30
2023-03-22T11:37:42.301Z,41.30
2023-03-22T11:40:55.328Z,41.20
2023-03-22T11:44:06.314Z,41.20
2023-03-22T11:47:14.134Z,41.20
2023-03-22T11:50:27.826Z,41.20
2023-03-22T11:53:37.036Z,41.10
2023-03-22T11:56:46.298Z,41.10
2023-03-22T11:59:58.408Z,41.10
2023-03-22T12:03:06.958Z,41.10
2023-03-22T12:06:17.979Z,41.10
2023-03-22T12:09:29.429Z,41.10
2023-03-22T12:12:39.763Z,41.10
2023-03-22T12:15:50.201Z,41.10
2023-03-22T12:19:03.800Z,41.10
2023-03-22T12:22:13.161Z,41.00
2023-03-22T12:25:22.517Z,41.10
2023-03-22T12:28:32.909Z,41.00
2023-03-22T12:31:43.666Z,41.00
2023-03-22T12:34:55.048Z,41.00
2023-03-22T12:38:23.707Z,41.00
2023-03-22T12:41:33.383Z,41.00
2023-03-22T12:44:46.438Z,41.00
2023-03-22T12:47:59.719Z,41.00
2023-03-22T12:51:09.009Z,41.00
2023-03-22T12:54:17.130Z,41.00
2023-03-22T12:57:26.036Z,41.00
2023-03-22T13:00:36.058Z,40.90
2023-03-22T13:03:48.283Z,41.00
2023-03-22T13:06:57.464Z,41.00
2023-03-22T13:10:42.944Z,40.90
2023-03-22T13:13:50.980Z,41.00
2023-03-22T13:17:00.730Z,41.00
2023-03-22T13:20:28.128Z,40.90
2023-03-22T13:23:36.216Z,40.90
2023-03-22T13:26:45.555Z,40.90
2023-03-22T13:29:54.086Z,40.90
2023-03-22T13:33:04.231Z,40.90
2023-03-22T13:36:24.946Z,42.30
2023-03-22T13:39:34.481Z,41.90
2023-03-22T13:42:42.415Z,41.50
2023-03-22T13:46:07.291Z,41.20
2023-03-22T13:49:44.497Z,41.10
2023-03-22T13:52:55.906Z,41.10
2023-03-22T13:56:05.032Z,41.00
2023-03-22T13:59:13.549Z,41.00
2023-03-22T14:02:24.579Z,41.00
2023-03-22T14:05:33.672Z,41.00
2023-03-22T14:08:43.787Z,41.00
2023-03-22T14:11:56.557Z,41.60
2023-03-22T14:15:06.073Z,41.00
2023-03-22T14:18:16.785Z,41.00
2023-03-22T14:21:26.877Z,41.00
